createdAt,value
2024-01-31T00:00:26.429Z,5.89
2024-01-31T00:02:52.997Z,5.83
2024-01-31T00:05:19.834Z,5.78
2024-01-31T00:07:46.517Z,5.72
2024-01-31T00:10:14.073Z,5.60
2024-01-31T00:12:40.723Z,5.59
2024-01-31T00:15:07.578Z,5.58
2024-01-31T00:17:34.169Z,5.57
2024-01-31T00:20:00.758Z,5.54
2024-01-31T00:22:27.346Z,5.52
2024-01-31T00:24:53.927Z,5.51
2024-01-31T00:27:20.401Z,5.51
2024-01-31T00:29:46.885Z,5.50
2024-01-31T00:32:13.384Z,5.44
2024-01-31T00:34:40.069Z,5.48
2024-01-31T00:37:06.689Z,5.49
2024-01-31T00:39:34.102Z,5.52
2024-01-31T00:42:00.871Z,5.52
2024-01-31T00:44:27.875Z,5.57
2024-01-31T00:46:54.599Z,5.63
2024-01-31T00:49:25.499Z,5.67
2024-01-31T00:51:53.376Z,5.75
2024-01-31T00:54:20.081Z,5.84
2024-01-31T00:56:46.553Z,5.93
2024-01-31T00:59:13.084Z,6.00
2024-01-31T01:01:39.782Z,6.04
2024-01-31T01:04:08.878Z,6.08
2024-01-31T01:06:35.908Z,6.11
2024-01-31T01:09:02.530Z,6.13
2024-01-31T01:11:32.290Z,6.13
2024-01-31T01:13:59.149Z,6.09
2024-01-31T01:16:25.719Z,6.08
2024-01-31T01:18:52.259Z,6.04
2024-01-31T01:21:18.795Z,6.02
2024-01-31T01:23:45.318Z,5.99
2024-01-31T01:26:13.217Z,5.99
2024-01-31T01:28:39.886Z,5.96
2024-01-31T01:31:07.136Z,5.91
2024-01-31T01:33:33.897Z,5.90
2024-01-31T01:36:00.614Z,5.86
2024-01-31T01:38:27.142Z,5.85
2024-01-31T01:40:53.728Z,5.83
2024-01-31T01:43:21.713Z,5.82
2024-01-31T01:45:49.134Z,5.83
2024-01-31T01:48:19.881Z,5.87
2024-01-31T01:50:46.738Z,5.90
2024-01-31T01:53:13.567Z,5.91
2024-01-31T01:55:42.837Z,5.97
2024-01-31T01:58:09.986Z,6.01
2024-01-31T02:00:37.120Z,6.04
2024-01-31T02:03:05.384Z,6.11
2024-01-31T02:05:33.195Z,6.09
2024-01-31T02:07:59.919Z,6.09
2024-01-31T02:10:26.921Z,6.06
2024-01-31T02:12:53.581Z,6.06
2024-01-31T02:15:20.101Z,6.06
2024-01-31T02:17:46.663Z,6.07
2024-01-31T02:20:17.011Z,6.07
2024-01-31T02:22:46.680Z,6.09
2024-01-31T02:25:14.958Z,6.12
2024-01-31T02:27:41.905Z,6.14
2024-01-31T02:30:09.102Z,6.21
2024-01-31T02:32:35.714Z,6.29
2024-01-31T02:35:02.332Z,6.34
2024-01-31T02:37:28.927Z,6.36
2024-01-31T02:39:55.490Z,6.36
2024-01-31T02:42:22.133Z,6.39
2024-01-31T02:44:49.718Z,6.44
2024-01-31T02:47:16.258Z,6.47
2024-01-31T02:49:42.930Z,6.45
2024-01-31T02:52:09.549Z,6.48
2024-01-31T02:54:36.240Z,6.49
2024-01-31T02:57:02.823Z,6.51
2024-01-31T02:59:29.320Z,6.54
2024-01-31T03:01:56.191Z,6.58
2024-01-31T03:04:22.775Z,6.61
2024-01-31T03:08:11.412Z,6.60
2024-01-31T03:10:38.059Z,6.62
2024-01-31T03:13:04.795Z,6.66
2024-01-31T03:15:31.310Z,6.69
2024-01-31T03:17:58.945Z,6.73
2024-01-31T03:20:25.475Z,6.78
2024-01-31T03:22:52.102Z,6.81
2024-01-31T03:25:18.603Z,6.83
2024-01-31T03:27:45.222Z,6.87
2024-01-31T03:30:12.326Z,6.89
2024-01-31T03:32:39.350Z,6.92
2024-01-31T03:35:06.559Z,6.95
2024-01-31T03:37:33.533Z,6.98
2024-01-31T03:40:00.608Z,7.02
2024-01-31T03:42:27.377Z,7.02
2024-01-31T03:44:53.843Z,7.02
2024-01-31T03:47:20.343Z,7.04
2024-01-31T03:49:48.272Z,7.02
2024-01-31T03:52:15.528Z,7.04
2024-01-31T03:54:42.188Z,7.05
2024-01-31T03:57:08.706Z,7.00
2024-01-31T03:59:38.054Z,6.99
2024-01-31T04:02:06.239Z,7.01
2024-01-31T04:04:32.999Z,7.02
2024-01-31T04:06:59.550Z,7.07
2024-01-31T04:09:26.047Z,7.12
2024-01-31T04:11:53.032Z,7.11
2024-01-31T04:14:19.518Z,7.18
2024-01-31T04:16:48.614Z,7.17
2024-01-31T04:19:15.681Z,7.13
2024-01-31T04:21:42.189Z,7.10
2024-01-31T04:24:08.843Z,7.09
2024-01-31T04:26:43.227Z,7.11
2024-01-31T04:29:10.195Z,7.16
2024-01-31T04:31:36.857Z,7.19
2024-01-31T04:34:06.150Z,7.19
2024-01-31T04:36:33.284Z,7.19
2024-01-31T04:39:01.479Z,7.18
2024-01-31T04:41:28.924Z,7.13
2024-01-31T04:43:55.432Z,7.08
2024-01-31T04:46:21.993Z,7.00
2024-01-31T04:48:49.919Z,6.92
2024-01-31T04:51:16.673Z,6.88
2024-01-31T04:53:43.211Z,6.82
2024-01-31T04:56:09.939Z,6.75
2024-01-31T04:58:37.109Z,6.69
2024-01-31T05:01:05.049Z,6.57
2024-01-31T05:03:31.828Z,6.53
2024-01-31T05:05:58.447Z,6.47
2024-01-31T05:08:28.885Z,6.42
2024-01-31T05:10:56.154Z,6.40
2024-01-31T05:13:23.101Z,6.35
2024-01-31T05:15:49.730Z,6.31
2024-01-31T05:18:16.312Z,6.29
2024-01-31T05:20:42.828Z,6.27
2024-01-31T05:23:09.425Z,6.22
2024-01-31T05:25:35.952Z,6.29
2024-01-31T05:28:02.543Z,6.30
2024-01-31T05:30:29.208Z,6.29
2024-01-31T05:32:55.881Z,6.33
2024-01-31T05:35:22.404Z,6.40
2024-01-31T05:37:49.049Z,6.48
2024-01-31T05:40:17.953Z,6.55
2024-01-31T05:42:46.080Z,6.54
2024-01-31T05:45:12.932Z,6.54
2024-01-31T05:47:39.518Z,6.58
2024-01-31T05:50:06.664Z,6.62
2024-01-31T05:52:33.410Z,6.69
2024-01-31T05:54:59.949Z,6.72
2024-01-31T05:57:26.468Z,6.77
2024-01-31T05:59:52.974Z,6.82
2024-01-31T06:02:20.432Z,6.84
2024-01-31T06:04:47.023Z,6.87
2024-01-31T06:07:13.763Z,6.91
2024-01-31T06:09:40.708Z,6.92
2024-01-31T06:12:07.780Z,6.94
2024-01-31T06:14:37.464Z,6.95
2024-01-31T06:17:04.909Z,6.99
2024-01-31T06:21:58.085Z,7.02
2024-01-31T06:24:25.367Z,7.04
2024-01-31T06:26:51.878Z,7.02
2024-01-31T06:29:19.699Z,7.04
2024-01-31T06:31:50.222Z,7.07
2024-01-31T06:34:18.051Z,7.09
2024-01-31T06:36:46.184Z,7.11
2024-01-31T06:39:12.758Z,7.11
2024-01-31T06:41:39.483Z,7.14
2024-01-31T06:44:06.086Z,7.18
2024-01-31T06:46:32.616Z,7.21
2024-01-31T06:49:00.454Z,7.24
2024-01-31T06:51:27.313Z,7.25
2024-01-31T06:53:53.926Z,7.27
2024-01-31T06:56:20.820Z,7.27
2024-01-31T06:58:49.146Z,7.31
2024-01-31T07:01:19.393Z,7.34
2024-01-31T07:03:46.542Z,7.36
2024-01-31T07:06:13.718Z,7.36
2024-01-31T07:08:43.096Z,7.38
2024-01-31T07:11:10.130Z,7.38
2024-01-31T07:13:37.240Z,7.42
2024-01-31T07:16:11.029Z,7.45
2024-01-31T07:18:41.841Z,7.45
2024-01-31T07:21:13.265Z,7.46
2024-01-31T07:23:40.759Z,7.47
2024-01-31T07:26:07.350Z,7.48
2024-01-31T07:28:40.343Z,7.49
2024-01-31T07:31:07.895Z,7.50
2024-01-31T07:33:35.418Z,7.48
2024-01-31T07:36:03.579Z,7.53
2024-01-31T07:38:30.204Z,7.52
2024-01-31T07:40:56.774Z,7.56
2024-01-31T07:43:23.499Z,7.57
2024-01-31T07:45:50.009Z,7.58
2024-01-31T07:48:16.562Z,7.60
2024-01-31T07:50:43.053Z,7.61
2024-01-31T07:53:09.622Z,7.65
2024-01-31T07:55:36.380Z,7.67
2024-01-31T07:58:04.382Z,7.71
2024-01-31T08:00:31.058Z,7.76
2024-01-31T08:02:57.613Z,7.78
2024-01-31T08:05:24.087Z,7.70
2024-01-31T08:07:50.725Z,7.79
2024-01-31T08:10:17.218Z,7.86
2024-01-31T08:12:44.303Z,7.84
2024-01-31T08:15:11.078Z,7.89
2024-01-31T08:17:37.749Z,7.88
2024-01-31T08:20:08.091Z,7.93
2024-01-31T08:22:37.787Z,7.95
2024-01-31T08:25:06.898Z,7.97
2024-01-31T08:27:33.493Z,8.01
2024-01-31T08:30:00.005Z,8.02
2024-01-31T08:32:27.113Z,8.04
2024-01-31T08:34:53.677Z,8.07
2024-01-31T08:37:20.283Z,8.10
2024-01-31T08:39:46.864Z,8.11
2024-01-31T08:42:13.427Z,8.14
2024-01-31T08:44:39.952Z,8.15
2024-01-31T08:47:18.025Z,8.16
2024-01-31T08:49:46.317Z,8.17
2024-01-31T08:52:14.492Z,8.19
2024-01-31T08:54:41.296Z,8.18
2024-01-31T08:57:07.895Z,8.18
2024-01-31T08:59:34.376Z,8.19
2024-01-31T09:02:00.957Z,8.20
2024-01-31T09:04:27.605Z,8.21
2024-01-31T09:06:54.215Z,8.23
2024-01-31T09:09:20.754Z,8.21
2024-01-31T09:11:47.285Z,8.18
2024-01-31T09:14:13.988Z,8.14
2024-01-31T09:16:40.620Z,8.13
2024-01-31T09:19:07.345Z,8.10
2024-01-31T09:21:33.899Z,8.11
2024-01-31T09:24:00.444Z,8.16
2024-01-31T09:26:26.950Z,8.25
2024-01-31T09:28:53.786Z,8.35
2024-01-31T09:31:24.537Z,8.40
2024-01-31T09:33:52.262Z,8.45
2024-01-31T09:36:19.142Z,8.49
2024-01-31T09:38:48.295Z,8.51
2024-01-31T09:41:16.644Z,8.53
2024-01-31T09:43:44.068Z,8.55
2024-01-31T09:46:10.939Z,8.58
2024-01-31T09:48:38.440Z,8.62
2024-01-31T09:51:05.710Z,8.66
2024-01-31T09:53:35.273Z,8.71
2024-01-31T09:56:01.916Z,8.74
2024-01-31T09:58:28.941Z,8.79
2024-01-31T10:01:00.513Z,8.77
2024-01-31T10:03:28.540Z,8.87
2024-01-31T10:05:55.069Z,8.89
2024-01-31T10:08:21.996Z,8.96
2024-01-31T10:10:48.835Z,9.03
2024-01-31T10:13:15.511Z,9.08
2024-01-31T10:15:42.130Z,9.13
2024-01-31T10:18:08.688Z,9.20
2024-01-31T10:20:35.211Z,9.28
2024-01-31T10:23:02.493Z,9.39
2024-01-31T10:25:29.221Z,9.45
2024-01-31T10:27:56.095Z,9.48
2024-01-31T10:30:22.663Z,9.49
2024-01-31T10:32:50.160Z,9.49
2024-01-31T10:37:55.982Z,9.48
2024-01-31T10:40:25.079Z,9.48
2024-01-31T10:42:53.718Z,9.53
2024-01-31T10:45:20.861Z,9.54
2024-01-31T10:47:47.637Z,9.54
2024-01-31T10:50:14.293Z,9.56
2024-01-31T10:52:42.327Z,9.59
2024-01-31T10:55:10.657Z,9.64
2024-01-31T10:57:40.573Z,9.64
2024-01-31T11:00:30.388Z,9.66
2024-01-31T11:02:58.532Z,9.69
2024-01-31T11:05:33.163Z,9.76
2024-01-31T11:08:00.059Z,9.82
2024-01-31T11:10:29.203Z,9.88
2024-01-31T11:13:01.575Z,9.90
2024-01-31T11:15:29.682Z,9.89
2024-01-31T11:18:13.460Z,9.89
2024-01-31T11:20:48.095Z,9.90
2024-01-31T11:23:20.886Z,9.91
2024-01-31T11:25:47.678Z,9.91
2024-01-31T11:28:16.227Z,9.92
2024-01-31T11:30:43.393Z,9.95
2024-01-31T11:33:10.460Z,9.99
2024-01-31T11:35:37.151Z,10.03
2024-01-31T11:38:04.533Z,10.07
2024-01-31T11:40:31.728Z,10.11
2024-01-31T11:42:58.362Z,10.11
2024-01-31T11:45:28.551Z,10.13
2024-01-31T11:47:55.894Z,10.10
2024-01-31T11:50:23.683Z,10.17
2024-01-31T11:52:52.060Z,10.20
2024-01-31T11:55:27.791Z,10.20
2024-01-31T11:57:54.698Z,10.27
2024-01-31T12:00:22.109Z,10.30
2024-01-31T12:02:49.260Z,10.32
2024-01-31T12:05:16.075Z,10.33
2024-01-31T12:07:44.554Z,10.36
2024-01-31T12:10:11.786Z,10.35
2024-01-31T12:12:42.909Z,10.36
2024-01-31T12:15:17.029Z,10.35
2024-01-31T12:17:45.138Z,10.28
2024-01-31T12:20:12.588Z,10.27
2024-01-31T12:22:41.116Z,10.28
2024-01-31T12:25:08.491Z,10.31
2024-01-31T12:27:35.462Z,10.36
2024-01-31T12:30:02.292Z,10.42
2024-01-31T12:32:28.984Z,10.47
2024-01-31T12:34:56.273Z,10.52
2024-01-31T12:37:23.227Z,10.53
2024-01-31T12:39:49.839Z,10.54
2024-01-31T12:42:16.803Z,10.54
2024-01-31T12:44:43.999Z,10.57
2024-01-31T12:47:11.342Z,10.56
2024-01-31T12:49:42.284Z,10.55
2024-01-31T12:52:09.268Z,10.57
2024-01-31T12:54:35.983Z,10.56
2024-01-31T12:57:02.619Z,10.54
2024-01-31T12:59:29.332Z,10.52
2024-01-31T13:01:56.066Z,10.50
2024-01-31T13:04:26.324Z,10.47
2024-01-31T13:06:54.899Z,10.42
2024-01-31T13:09:22.075Z,10.41
2024-01-31T13:11:48.756Z,10.38
2024-01-31T13:14:16.176Z,10.34
2024-01-31T13:16:51.026Z,10.30
2024-01-31T13:19:25.975Z,10.29
2024-01-31T13:21:53.955Z,10.29
2024-01-31T13:24:20.954Z,10.26
2024-01-31T13:26:47.690Z,10.25
2024-01-31T13:29:14.783Z,10.26
2024-01-31T13:31:41.358Z,10.22
2024-01-31T13:34:08.102Z,10.20
2024-01-31T13:36:34.696Z,10.18
2024-01-31T13:39:01.328Z,10.15
2024-01-31T13:41:28.596Z,10.15
2024-01-31T13:43:55.235Z,10.11
2024-01-31T13:46:21.752Z,10.11
2024-01-31T13:48:48.344Z,10.14
2024-01-31T13:51:16.613Z,10.19
2024-01-31T13:53:43.257Z,10.29
2024-01-31T13:56:09.793Z,10.41
2024-01-31T13:58:36.729Z,10.53
2024-01-31T14:01:03.349Z,10.67
2024-01-31T14:03:29.974Z,10.76
2024-01-31T14:05:56.500Z,10.77
2024-01-31T14:08:23.090Z,10.80
2024-01-31T14:10:49.660Z,10.81
2024-01-31T14:13:16.310Z,10.84
2024-01-31T14:15:42.828Z,10.84
2024-01-31T14:18:13.288Z,10.83
2024-01-31T14:20:41.541Z,10.80
2024-01-31T14:23:23.559Z,10.75
2024-01-31T14:25:54.702Z,10.69
2024-01-31T14:28:21.266Z,10.66
2024-01-31T14:30:47.834Z,10.62
2024-01-31T14:33:14.497Z,10.56
2024-01-31T14:35:41.283Z,10.52
2024-01-31T14:38:07.893Z,10.56
2024-01-31T14:40:34.399Z,10.57
2024-01-31T14:43:01.022Z,10.68
2024-01-31T14:45:27.683Z,10.87
2024-01-31T14:47:54.477Z,11.00
2024-01-31T14:50:21.270Z,11.15
2024-01-31T14:52:47.778Z,11.50
2024-01-31T14:55:14.476Z,11.54
2024-01-31T14:57:41.005Z,11.60
2024-01-31T15:00:09.195Z,11.74
2024-01-31T15:02:35.960Z,11.87
2024-01-31T15:05:02.721Z,11.89
2024-01-31T15:07:30.944Z,11.83
2024-01-31T15:09:57.962Z,11.74
2024-01-31T15:12:24.664Z,11.67
2024-01-31T15:14:51.521Z,11.67
2024-01-31T15:17:18.235Z,11.82
2024-01-31T15:19:49.669Z,12.04
2024-01-31T15:22:17.071Z,12.19
2024-01-31T15:24:44.100Z,12.53
2024-01-31T15:27:10.924Z,13.21
2024-01-31T15:29:37.749Z,13.45
2024-01-31T15:32:04.602Z,14.56
2024-01-31T15:34:31.355Z,15.90
2024-01-31T15:36:59.998Z,16.03
2024-01-31T15:39:26.504Z,14.97
2024-01-31T15:41:53.116Z,13.99
2024-01-31T15:44:22.540Z,13.23
2024-01-31T15:46:50.245Z,12.59
2024-01-31T15:49:16.777Z,12.19
2024-01-31T15:51:47.295Z,12.00
2024-01-31T15:54:15.665Z,11.66
2024-01-31T15:56:42.322Z,11.35
2024-01-31T15:59:08.829Z,11.07
2024-01-31T16:01:35.378Z,10.81
2024-01-31T16:04:02.151Z,10.52
2024-01-31T16:06:28.932Z,10.23
2024-01-31T16:08:57.734Z,9.96
2024-01-31T16:11:26.254Z,9.78
2024-01-31T16:13:52.854Z,9.60
2024-01-31T16:16:19.512Z,9.44
2024-01-31T16:18:46.513Z,9.30
2024-01-31T16:21:13.934Z,9.16
2024-01-31T16:23:41.125Z,9.03
2024-01-31T16:26:08.813Z,8.91
2024-01-31T16:28:35.489Z,8.80
2024-01-31T16:31:03.891Z,8.68
2024-01-31T16:33:30.919Z,8.60
2024-01-31T16:35:59.737Z,8.55
2024-01-31T16:38:26.784Z,8.53
2024-01-31T16:40:53.389Z,8.49
2024-01-31T16:43:20.130Z,8.44
2024-01-31T16:45:46.694Z,8.35
2024-01-31T16:48:13.594Z,8.26
2024-01-31T16:50:40.273Z,8.19
2024-01-31T16:53:06.823Z,8.17
2024-01-31T16:55:33.410Z,8.13
2024-01-31T16:57:59.916Z,8.12
2024-01-31T17:00:26.906Z,8.13
2024-01-31T17:02:54.353Z,8.13
2024-01-31T17:05:22.186Z,8.14
2024-01-31T17:07:48.718Z,8.15
2024-01-31T17:10:15.355Z,8.09
2024-01-31T17:12:44.356Z,8.01
2024-01-31T17:15:11.626Z,7.95
2024-01-31T17:17:38.365Z,7.90
2024-01-31T17:20:05.669Z,7.87
2024-01-31T17:22:32.425Z,7.82
2024-01-31T17:24:58.978Z,7.77
2024-01-31T17:27:25.456Z,7.75
2024-01-31T17:29:52.028Z,7.76
2024-01-31T17:32:18.593Z,7.78
2024-01-31T17:34:46.158Z,7.76
2024-01-31T17:37:12.806Z,7.76
2024-01-31T17:39:39.291Z,7.75
2024-01-31T17:42:06.557Z,7.70
2024-01-31T17:44:35.288Z,7.67
2024-01-31T17:47:02.566Z,7.61
2024-01-31T17:49:29.183Z,7.57
2024-01-31T17:51:55.938Z,7.58
2024-01-31T17:54:22.654Z,7.61
2024-01-31T17:56:51.772Z,7.61
2024-01-31T17:59:18.514Z,7.59
2024-01-31T18:01:45.060Z,7.59
2024-01-31T18:04:11.848Z,7.56
2024-01-31T18:06:40.564Z,7.52
2024-01-31T18:09:11.281Z,7.44
2024-01-31T18:11:38.666Z,7.43
2024-01-31T18:14:05.295Z,7.38
2024-01-31T18:16:31.929Z,7.36
2024-01-31T18:19:03.601Z,7.33
2024-01-31T18:21:36.783Z,7.33
2024-01-31T18:24:04.382Z,7.36
2024-01-31T18:26:31.384Z,7.36
2024-01-31T18:28:59.165Z,7.29
2024-01-31T18:31:27.226Z,7.23
2024-01-31T18:33:55.004Z,7.16
2024-01-31T18:36:22.286Z,7.09
2024-01-31T18:38:48.970Z,7.09
2024-01-31T18:41:17.231Z,7.05
2024-01-31T18:43:43.942Z,7.01
2024-01-31T18:46:10.493Z,6.97
2024-01-31T18:48:37.294Z,6.93
2024-01-31T18:51:04.370Z,6.96
2024-01-31T18:53:30.950Z,6.97
2024-01-31T18:55:57.496Z,6.96
2024-01-31T18:58:25.952Z,6.94
2024-01-31T19:00:53.664Z,6.83
2024-01-31T19:03:20.313Z,6.71
2024-01-31T19:05:47.058Z,6.63
2024-01-31T19:08:13.768Z,6.53
2024-01-31T19:10:40.927Z,6.47
2024-01-31T19:13:07.427Z,6.51
2024-01-31T19:15:35.330Z,6.55
2024-01-31T19:18:04.792Z,6.61
2024-01-31T19:20:31.356Z,6.68
2024-01-31T19:22:57.966Z,6.72
2024-01-31T19:25:26.650Z,6.76
2024-01-31T19:27:55.816Z,6.75
2024-01-31T19:30:23.107Z,6.80
2024-01-31T19:32:49.916Z,6.82
2024-01-31T19:35:17.087Z,6.86
2024-01-31T19:37:44.937Z,6.87
2024-01-31T19:40:11.853Z,6.85
2024-01-31T19:42:38.321Z,6.86
2024-01-31T19:45:05.420Z,6.87
2024-01-31T19:47:31.995Z,6.88
2024-01-31T19:49:58.624Z,6.88
2024-01-31T19:52:25.208Z,6.86
2024-01-31T19:54:51.798Z,6.83
2024-01-31T19:57:18.318Z,6.80
2024-01-31T19:59:44.825Z,6.80
2024-01-31T20:02:11.337Z,6.81
2024-01-31T20:04:38.794Z,6.84
2024-01-31T20:07:07.751Z,6.84
2024-01-31T20:09:34.298Z,6.85
2024-01-31T20:12:00.868Z,6.86
2024-01-31T20:14:27.413Z,6.81
2024-01-31T20:16:54.538Z,6.85
2024-01-31T20:19:21.283Z,6.81
2024-01-31T20:21:47.911Z,6.87
2024-01-31T20:24:14.547Z,6.87
2024-01-31T20:26:41.133Z,6.89
2024-01-31T20:29:10.479Z,6.92
2024-01-31T20:31:37.720Z,6.95
2024-01-31T20:34:05.582Z,6.98
2024-01-31T20:36:32.225Z,7.03
2024-01-31T20:38:58.747Z,7.08
2024-01-31T20:41:27.584Z,7.11
2024-01-31T20:43:54.386Z,7.16
2024-01-31T20:46:21.526Z,7.21
2024-01-31T20:48:49.258Z,7.27
2024-01-31T20:51:16.642Z,7.28
2024-01-31T20:53:43.761Z,7.30
2024-01-31T20:56:11.072Z,7.40
2024-01-31T20:58:39.139Z,7.43
2024-01-31T21:01:09.186Z,7.45
2024-01-31T21:03:37.140Z,7.48
2024-01-31T21:06:05.562Z,7.48
2024-01-31T21:08:32.392Z,7.54
2024-01-31T21:10:59.026Z,7.57
2024-01-31T21:13:25.715Z,7.61
2024-01-31T21:15:52.201Z,7.67
2024-01-31T21:18:19.050Z,7.70
2024-01-31T21:20:45.639Z,7.74
2024-01-31T21:23:12.247Z,7.80
2024-01-31T21:25:38.752Z,7.84
2024-01-31T21:28:05.671Z,7.89
2024-01-31T21:30:32.172Z,7.92
2024-01-31T21:32:58.836Z,7.97
2024-01-31T21:35:25.448Z,7.98
2024-01-31T21:37:52.329Z,8.01
2024-01-31T21:40:18.883Z,8.01
2024-01-31T21:42:45.504Z,8.01
2024-01-31T21:45:15.229Z,8.02
2024-01-31T21:47:41.970Z,8.00
2024-01-31T21:50:09.099Z,7.99
2024-01-31T21:52:35.649Z,8.00
2024-01-31T21:55:02.134Z,8.01
2024-01-31T21:57:28.634Z,8.01
2024-01-31T21:59:58.232Z,8.00
2024-01-31T22:02:25.971Z,8.02
2024-01-31T22:04:53.581Z,8.01
2024-01-31T22:07:20.738Z,8.04
2024-01-31T22:09:48.590Z,8.06
2024-01-31T22:12:16.126Z,8.07
2024-01-31T22:14:42.961Z,8.10
2024-01-31T22:17:10.256Z,8.13
2024-01-31T22:19:40.664Z,8.18
2024-01-31T22:22:10.055Z,8.19
2024-01-31T22:24:36.591Z,8.20
2024-01-31T22:27:03.455Z,8.23
2024-01-31T22:29:30.237Z,8.23
2024-01-31T22:31:57.215Z,8.25
2024-01-31T22:34:24.244Z,8.27
2024-01-31T22:36:50.916Z,8.27
2024-01-31T22:39:19.045Z,8.29
2024-01-31T22:41:49.288Z,8.30
2024-01-31T22:44:15.891Z,8.32
2024-01-31T22:46:42.626Z,8.32
2024-01-31T22:49:13.651Z,8.38
2024-01-31T22:51:41.008Z,8.38
2024-01-31T22:54:07.711Z,8.40
2024-01-31T22:56:35.062Z,8.41
2024-01-31T22:59:01.733Z,8.43
2024-01-31T23:01:28.356Z,8.46
2024-01-31T23:03:55.060Z,8.47
2024-01-31T23:06:21.996Z,8.50
2024-01-31T23:08:49.042Z,8.52
2024-01-31T23:11:16.453Z,8.55
2024-01-31T23:13:43.140Z,8.56
2024-01-31T23:16:10.229Z,8.62
2024-01-31T23:18:37.019Z,8.64
2024-01-31T23:21:06.988Z,8.69
2024-01-31T23:23:33.833Z,8.71
2024-01-31T23:26:00.530Z,8.73
2024-01-31T23:28:27.452Z,8.78
2024-01-31T23:30:54.010Z,8.82
2024-01-31T23:33:20.718Z,8.84
2024-01-31T23:35:47.377Z,8.85
2024-01-31T23:38:13.984Z,8.90
2024-01-31T23:40:40.487Z,8.93
2024-01-31T23:43:07.110Z,8.95
2024-01-31T23:45:35.172Z,8.97
2024-01-31T23:48:01.827Z,8.98
2024-01-31T23:50:28.747Z,9.00
2024-01-31T23:52:55.340Z,8.99
2024-01-31T23:55:21.894Z,9.00
2024-01-31T23:57:48.486Z,8.98
